sensor_id;sensor_type;location;lat;lon;timestamp;pressure;altitude;pressure_sealevel;temperature
58929;BMP180;44713;53.378;10.022;2022-08-19T00:02:04;100952.00;;;19.80
58929;BMP180;44713;53.378;10.022;2022-08-19T00:04:33;100955.00;;;19.80
58929;BMP180;44713;53.378;10.022;2022-08-19T00:07:02;100962.00;;;19.70
58929;BMP180;44713;53.378;10.022;2022-08-19T00:09:28;100962.00;;;19.70
58929;BMP180;44713;53.378;10.022;2022-08-19T00:11:55;100968.00;;;19.80
58929;BMP180;44713;53.378;10.022;2022-08-19T00:14:21;100974.00;;;19.80
58929;BMP180;44713;53.378;10.022;2022-08-19T00:16:47;100981.00;;;19.90
58929;BMP180;44713;53.378;10.022;2022-08-19T00:19:14;100977.00;;;19.90
58929;BMP180;44713;53.378;10.022;2022-08-19T00:21:39;100976.00;;;20.00
58929;BMP180;44713;53.378;10.022;2022-08-19T00:24:07;100976.00;;;19.90
58929;BMP180;44713;53.378;10.022;2022-08-19T00:26:33;100971.00;;;20.00
58929;BMP180;44713;53.378;10.022;2022-08-19T00:28:59;100972.00;;;19.90
58929;BMP180;44713;53.378;10.022;2022-08-19T00:31:26;100965.00;;;19.90
58929;BMP180;44713;53.378;10.022;2022-08-19T00:33:52;100953.00;;;19.80
58929;BMP180;44713;53.378;10.022;2022-08-19T00:36:18;100948.00;;;19.80
58929;BMP180;44713;53.378;10.022;2022-08-19T00:38:43;100947.00;;;19.70
58929;BMP180;44713;53.378;10.022;2022-08-19T00:41:14;100945.00;;;19.70
58929;BMP180;44713;53.378;10.022;2022-08-19T00:43:41;100944.00;;;19.80
58929;BMP180;44713;53.378;10.022;2022-08-19T00:46:07;100946.00;;;19.80
58929;BMP180;44713;53.378;10.022;2022-08-19T00:48:33;100940.00;;;19.70
58929;BMP180;44713;53.378;10.022;2022-08-19T00:50:59;100947.00;;;19.70
58929;BMP180;44713;53.378;10.022;2022-08-19T00:53:27;100943.00;;;19.70
58929;BMP180;44713;53.378;10.022;2022-08-19T00:55:56;100948.00;;;19.60
58929;BMP180;44713;53.378;10.022;2022-08-19T00:58:27;100959.00;;;19.60
58929;BMP180;44713;53.378;10.022;2022-08-19T01:00:54;100962.00;;;19.60
58929;BMP180;44713;53.378;10.022;2022-08-19T01:03:21;100958.00;;;19.60
58929;BMP180;44713;53.378;10.022;2022-08-19T01:05:47;100954.00;;;19.60
58929;BMP180;44713;53.378;10.022;2022-08-19T01:08:15;100953.00;;;19.60
58929;BMP180;44713;53.378;10.022;2022-08-19T01:10:45;100961.00;;;19.50
58929;BMP180;44713;53.378;10.022;2022-08-19T01:13:13;100960.00;;;19.50
58929;BMP180;44713;53.378;10.022;2022-08-19T01:15:43;100956.00;;;19.50
58929;BMP180;44713;53.378;10.022;2022-08-19T01:18:13;100964.00;;;19.50
58929;BMP180;44713;53.378;10.022;2022-08-19T01:20:40;100949.00;;;19.50
58929;BMP180;44713;53.378;10.022;2022-08-19T01:23:06;100945.00;;;19.50
58929;BMP180;44713;53.378;10.022;2022-08-19T01:25:44;100940.00;;;19.50
58929;BMP180;44713;53.378;10.022;2022-08-19T01:28:24;100936.00;;;19.50
58929;BMP180;44713;53.378;10.022;2022-08-19T01:30:50;100931.00;;;19.40
58929;BMP180;44713;53.378;10.022;2022-08-19T01:33:16;100925.00;;;19.40
58929;BMP180;44713;53.378;10.022;2022-08-19T01:35:42;100923.00;;;19.40
58929;BMP180;44713;53.378;10.022;2022-08-19T01:38:16;100921.00;;;19.40
58929;BMP180;44713;53.378;10.022;2022-08-19T01:40:44;100919.00;;;19.40
58929;BMP180;44713;53.378;10.022;2022-08-19T01:43:09;100917.00;;;19.40
58929;BMP180;44713;53.378;10.022;2022-08-19T01:45:35;100921.00;;;19.30
58929;BMP180;44713;53.378;10.022;2022-08-19T01:48:02;100920.00;;;19.30
58929;BMP180;44713;53.378;10.022;2022-08-19T01:50:30;100915.00;;;19.40
58929;BMP180;44713;53.378;10.022;2022-08-19T01:52:56;100911.00;;;19.40
58929;BMP180;44713;53.378;10.022;2022-08-19T01:55:21;100913.00;;;19.40
58929;BMP180;44713;53.378;10.022;2022-08-19T01:57:53;100906.00;;;19.30
58929;BMP180;44713;53.378;10.022;2022-08-19T02:00:22;100901.00;;;19.30
58929;BMP180;44713;53.378;10.022;2022-08-19T02:02:48;100905.00;;;19.30
58929;BMP180;44713;53.378;10.022;2022-08-19T02:05:14;100898.00;;;19.30
58929;BMP180;44713;53.378;10.022;2022-08-19T02:07:43;100889.00;;;19.30
58929;BMP180;44713;53.378;10.022;2022-08-19T02:10:13;100889.00;;;19.20
58929;BMP180;44713;53.378;10.022;2022-08-19T02:12:40;100890.00;;;19.20
58929;BMP180;44713;53.378;10.022;2022-08-19T02:15:06;100891.00;;;19.30
58929;BMP180;44713;53.378;10.022;2022-08-19T02:17:33;100895.00;;;19.30
58929;BMP180;44713;53.378;10.022;2022-08-19T02:19:58;100890.00;;;19.20
58929;BMP180;44713;53.378;10.022;2022-08-19T02:22:25;100888.00;;;19.20
58929;BMP180;44713;53.378;10.022;2022-08-19T02:24:54;100888.00;;;19.20
58929;BMP180;44713;53.378;10.022;2022-08-19T02:27:20;100897.00;;;19.20
58929;BMP180;44713;53.378;10.022;2022-08-19T02:29:47;100893.00;;;19.20
58929;BMP180;44713;53.378;10.022;2022-08-19T02:32:13;100890.00;;;19.20
58929;BMP180;44713;53.378;10.022;2022-08-19T02:34:38;100885.00;;;19.20
58929;BMP180;44713;53.378;10.022;2022-08-19T02:37:04;100881.00;;;19.20
58929;BMP180;44713;53.378;10.022;2022-08-19T02:39:29;100883.00;;;19.10
58929;BMP180;44713;53.378;10.022;2022-08-19T02:41:55;100877.00;;;19.10
58929;BMP180;44713;53.378;10.022;2022-08-19T02:44:20;100872.00;;;19.10
58929;BMP180;44713;53.378;10.022;2022-08-19T02:46:47;100878.00;;;19.10
58929;BMP180;44713;53.378;10.022;2022-08-19T02:49:12;100881.00;;;19.20
58929;BMP180;44713;53.378;10.022;2022-08-19T02:51:40;100887.00;;;19.20
58929;BMP180;44713;53.378;10.022;2022-08-19T02:54:07;100890.00;;;19.20
58929;BMP180;44713;53.378;10.022;2022-08-19T02:56:36;100900.00;;;19.10
58929;BMP180;44713;53.378;10.022;2022-08-19T02:59:03;100900.00;;;19.00
58929;BMP180;44713;53.378;10.022;2022-08-19T03:01:33;100907.00;;;19.00
58929;BMP180;44713;53.378;10.022;2022-08-19T03:03:59;100904.00;;;19.10
58929;BMP180;44713;53.378;10.022;2022-08-19T03:06:26;100903.00;;;19.10
58929;BMP180;44713;53.378;10.022;2022-08-19T03:08:52;100899.00;;;19.00
58929;BMP180;44713;53.378;10.022;2022-08-19T03:11:30;100899.00;;;18.90
58929;BMP180;44713;53.378;10.022;2022-08-19T03:13:56;100896.00;;;19.00
58929;BMP180;44713;53.378;10.022;2022-08-19T03:16:24;100908.00;;;19.00
58929;BMP180;44713;53.378;10.022;2022-08-19T03:18:50;100901.00;;;19.00
58929;BMP180;44713;53.378;10.022;2022-08-19T03:21:20;100894.00;;;19.00
58929;BMP180;44713;53.378;10.022;2022-08-19T03:23:46;100891.00;;;19.10
58929;BMP180;44713;53.378;10.022;2022-08-19T03:26:11;100893.00;;;19.00
58929;BMP180;44713;53.378;10.022;2022-08-19T03:28:37;100888.00;;;19.00
58929;BMP180;44713;53.378;10.022;2022-08-19T03:31:06;100889.00;;;19.00
58929;BMP180;44713;53.378;10.022;2022-08-19T03:33:32;100879.00;;;19.00
58929;BMP180;44713;53.378;10.022;2022-08-19T03:36:08;100883.00;;;19.00
58929;BMP180;44713;53.378;10.022;2022-08-19T03:38:40;100882.00;;;19.00
58929;BMP180;44713;53.378;10.022;2022-08-19T03:41:09;100882.00;;;18.90
58929;BMP180;44713;53.378;10.022;2022-08-19T03:43:37;100889.00;;;19.00
58929;BMP180;44713;53.378;10.022;2022-08-19T03:46:05;100892.00;;;18.90
58929;BMP180;44713;53.378;10.022;2022-08-19T03:48:31;100903.00;;;18.90
58929;BMP180;44713;53.378;10.022;2022-08-19T03:50:57;100904.00;;;19.00
58929;BMP180;44713;53.378;10.022;2022-08-19T03:53:24;100909.00;;;19.00
58929;BMP180;44713;53.378;10.022;2022-08-19T03:55:51;100915.00;;;19.00
58929;BMP180;44713;53.378;10.022;2022-08-19T03:58:16;100908.00;;;19.00
58929;BMP180;44713;53.378;10.022;2022-08-19T04:00:42;100914.00;;;19.00
58929;BMP180;44713;53.378;10.022;2022-08-19T04:03:08;100917.00;;;19.00
58929;BMP180;44713;53.378;10.022;2022-08-19T04:05:33;100911.00;;;19.00
58929;BMP180;44713;53.378;10.022;2022-08-19T04:07:58;100914.00;;;19.00
58929;BMP180;44713;53.378;10.022;2022-08-19T04:10:24;100913.00;;;19.00
58929;BMP180;44713;53.378;10.022;2022-08-19T04:12:49;100914.00;;;19.00
58929;BMP180;44713;53.378;10.022;2022-08-19T04:15:15;100910.00;;;18.90
58929;BMP180;44713;53.378;10.022;2022-08-19T04:17:40;100930.00;;;18.90
58929;BMP180;44713;53.378;10.022;2022-08-19T04:20:06;100930.00;;;18.90
58929;BMP180;44713;53.378;10.022;2022-08-19T04:22:31;100934.00;;;18.80
58929;BMP180;44713;53.378;10.022;2022-08-19T04:24:57;100937.00;;;18.90
58929;BMP180;44713;53.378;10.022;2022-08-19T04:27:22;100946.00;;;18.90
58929;BMP180;44713;53.378;10.022;2022-08-19T04:29:47;100937.00;;;18.90
58929;BMP180;44713;53.378;10.022;2022-08-19T04:32:13;100935.00;;;19.00
58929;BMP180;44713;53.378;10.022;2022-08-19T04:34:40;100950.00;;;19.00
58929;BMP180;44713;53.378;10.022;2022-08-19T04:37:08;100946.00;;;19.10
58929;BMP180;44713;53.378;10.022;2022-08-19T04:39:37;100947.00;;;19.00
58929;BMP180;44713;53.378;10.022;2022-08-19T04:42:21;100947.00;;;19.00
58929;BMP180;44713;53.378;10.022;2022-08-19T04:45:06;100954.00;;;19.00
58929;BMP180;44713;53.378;10.022;2022-08-19T04:47:35;100950.00;;;19.00
58929;BMP180;44713;53.378;10.022;2022-08-19T04:50:02;100947.00;;;19.10
58929;BMP180;44713;53.378;10.022;2022-08-19T04:52:28;100953.00;;;19.00
58929;BMP180;44713;53.378;10.022;2022-08-19T04:54:53;100948.00;;;19.00
58929;BMP180;44713;53.378;10.022;2022-08-19T04:57:20;100952.00;;;19.00
58929;BMP180;44713;53.378;10.022;2022-08-19T04:59:46;100955.00;;;19.00
58929;BMP180;44713;53.378;10.022;2022-08-19T05:02:11;100950.00;;;19.00
58929;BMP180;44713;53.378;10.022;2022-08-19T05:04:37;100956.00;;;19.00
58929;BMP180;44713;53.378;10.022;2022-08-19T05:07:05;100958.00;;;19.10
58929;BMP180;44713;53.378;10.022;2022-08-19T05:09:30;100961.00;;;19.10
58929;BMP180;44713;53.378;10.022;2022-08-19T05:11:55;100956.00;;;19.00
58929;BMP180;44713;53.378;10.022;2022-08-19T05:14:21;100954.00;;;18.90
58929;BMP180;44713;53.378;10.022;2022-08-19T05:16:46;100959.00;;;18.90
58929;BMP180;44713;53.378;10.022;2022-08-19T05:19:12;100972.00;;;18.90
58929;BMP180;44713;53.378;10.022;2022-08-19T05:21:56;100977.00;;;18.90
58929;BMP180;44713;53.378;10.022;2022-08-19T05:24:40;100978.00;;;18.90
58929;BMP180;44713;53.378;10.022;2022-08-19T05:27:06;100977.00;;;18.90
58929;BMP180;44713;53.378;10.022;2022-08-19T05:29:32;100980.00;;;18.90
58929;BMP180;44713;53.378;10.022;2022-08-19T05:32:00;100985.00;;;18.90
58929;BMP180;44713;53.378;10.022;2022-08-19T05:34:26;100979.00;;;18.90
58929;BMP180;44713;53.378;10.022;2022-08-19T05:36:56;100976.00;;;18.90
58929;BMP180;44713;53.378;10.022;2022-08-19T05:39:23;100978.00;;;18.90
58929;BMP180;44713;53.378;10.022;2022-08-19T05:41:57;100979.00;;;18.90
58929;BMP180;44713;53.378;10.022;2022-08-19T05:44:27;100978.00;;;18.90
58929;BMP180;44713;53.378;10.022;2022-08-19T05:46:57;100971.00;;;18.80
58929;BMP180;44713;53.378;10.022;2022-08-19T05:49:23;100965.00;;;18.80
58929;BMP180;44713;53.378;10.022;2022-08-19T05:51:50;100970.00;;;18.80
58929;BMP180;44713;53.378;10.022;2022-08-19T05:54:16;100965.00;;;18.90
58929;BMP180;44713;53.378;10.022;2022-08-19T05:56:42;100970.00;;;18.90
58929;BMP180;44713;53.378;10.022;2022-08-19T05:59:09;100973.00;;;18.80
58929;BMP180;44713;53.378;10.022;2022-08-19T06:01:40;100973.00;;;18.80
58929;BMP180;44713;53.378;10.022;2022-08-19T06:04:06;100978.00;;;18.80
58929;BMP180;44713;53.378;10.022;2022-08-19T06:06:33;100977.00;;;18.90
58929;BMP180;44713;53.378;10.022;2022-08-19T06:09:03;100982.00;;;18.90
58929;BMP180;44713;53.378;10.022;2022-08-19T06:11:47;100979.00;;;18.90
58929;BMP180;44713;53.378;10.022;2022-08-19T06:14:16;100977.00;;;18.90
58929;BMP180;44713;53.378;10.022;2022-08-19T06:16:43;100977.00;;;18.90
58929;BMP180;44713;53.378;10.022;2022-08-19T06:19:15;100979.00;;;18.90
58929;BMP180;44713;53.378;10.022;2022-08-19T06:21:43;100967.00;;;18.90
58929;BMP180;44713;53.378;10.022;2022-08-19T06:24:11;100967.00;;;18.90
58929;BMP180;44713;53.378;10.022;2022-08-19T06:26:39;100962.00;;;18.80
58929;BMP180;44713;53.378;10.022;2022-08-19T06:29:06;100970.00;;;18.80
58929;BMP180;44713;53.378;10.022;2022-08-19T06:31:33;100961.00;;;18.80
58929;BMP180;44713;53.378;10.022;2022-08-19T06:34:01;100967.00;;;18.70
58929;BMP180;44713;53.378;10.022;2022-08-19T06:36:32;100967.00;;;18.70
58929;BMP180;44713;53.378;10.022;2022-08-19T06:39:04;100958.00;;;18.70
58929;BMP180;44713;53.378;10.022;2022-08-19T06:41:30;100959.00;;;18.70
58929;BMP180;44713;53.378;10.022;2022-08-19T06:43:58;100965.00;;;18.80
58929;BMP180;44713;53.378;10.022;2022-08-19T06:46:24;100969.00;;;18.80
58929;BMP180;44713;53.378;10.022;2022-08-19T06:48:49;100963.00;;;18.80
58929;BMP180;44713;53.378;10.022;2022-08-19T06:51:17;100964.00;;;18.60
58929;BMP180;44713;53.378;10.022;2022-08-19T06:53:47;100958.00;;;18.70
58929;BMP180;44713;53.378;10.022;2022-08-19T06:56:14;100957.00;;;18.80
58929;BMP180;44713;53.378;10.022;2022-08-19T06:58:40;100961.00;;;18.80
58929;BMP180;44713;53.378;10.022;2022-08-19T07:01:06;100958.00;;;18.90
58929;BMP180;44713;53.378;10.022;2022-08-19T07:03:32;100958.00;;;19.00
58929;BMP180;44713;53.378;10.022;2022-08-19T07:06:07;100959.00;;;18.90
58929;BMP180;44713;53.378;10.022;2022-08-19T07:08:33;100961.00;;;18.90
58929;BMP180;44713;53.378;10.022;2022-08-19T07:11:00;100961.00;;;19.00
58929;BMP180;44713;53.378;10.022;2022-08-19T07:13:25;100963.00;;;19.00
58929;BMP180;44713;53.378;10.022;2022-08-19T07:15:51;100974.00;;;18.90
58929;BMP180;44713;53.378;10.022;2022-08-19T07:18:20;100965.00;;;19.00
58929;BMP180;44713;53.378;10.022;2022-08-19T07:20:47;100968.00;;;19.00
58929;BMP180;44713;53.378;10.022;2022-08-19T07:23:13;100976.00;;;19.00
58929;BMP180;44713;53.378;10.022;2022-08-19T07:25:38;100987.00;;;19.10
58929;BMP180;44713;53.378;10.022;2022-08-19T07:28:04;100988.00;;;19.10
58929;BMP180;44713;53.378;10.022;2022-08-19T07:30:37;101004.00;;;19.10
58929;BMP180;44713;53.378;10.022;2022-08-19T07:33:02;101002.00;;;19.10
58929;BMP180;44713;53.378;10.022;2022-08-19T07:35:28;100995.00;;;19.10
58929;BMP180;44713;53.378;10.022;2022-08-19T07:37:53;100989.00;;;19.20
58929;BMP180;44713;53.378;10.022;2022-08-19T07:40:19;100992.00;;;19.20
58929;BMP180;44713;53.378;10.022;2022-08-19T07:42:44;100993.00;;;19.20
58929;BMP180;44713;53.378;10.022;2022-08-19T07:45:10;101000.00;;;19.20
58929;BMP180;44713;53.378;10.022;2022-08-19T07:47:35;101011.00;;;19.20
58929;BMP180;44713;53.378;10.022;2022-08-19T07:50:01;101015.00;;;19.20
58929;BMP180;44713;53.378;10.022;2022-08-19T07:52:29;101009.00;;;19.20
58929;BMP180;44713;53.378;10.022;2022-08-19T07:54:55;101012.00;;;19.20
58929;BMP180;44713;53.378;10.022;2022-08-19T07:57:20;101013.00;;;19.30
58929;BMP180;44713;53.378;10.022;2022-08-19T07:59:46;101012.00;;;19.30
58929;BMP180;44713;53.378;10.022;2022-08-19T08:02:11;101025.00;;;19.30
58929;BMP180;44713;53.378;10.022;2022-08-19T08:04:36;101029.00;;;19.20
58929;BMP180;44713;53.378;10.022;2022-08-19T08:07:20;101030.00;;;19.30
58929;BMP180;44713;53.378;10.022;2022-08-19T08:10:06;101035.00;;;19.20
58929;BMP180;44713;53.378;10.022;2022-08-19T08:12:39;101037.00;;;19.20
58929;BMP180;44713;53.378;10.022;2022-08-19T08:15:10;101033.00;;;19.10
58929;BMP180;44713;53.378;10.022;2022-08-19T08:17:36;101036.00;;;19.20
58929;BMP180;44713;53.378;10.022;2022-08-19T08:20:06;101042.00;;;19.20
58929;BMP180;44713;53.378;10.022;2022-08-19T08:22:32;101034.00;;;19.10
58929;BMP180;44713;53.378;10.022;2022-08-19T08:25:19;101041.00;;;19.30
58929;BMP180;44713;53.378;10.022;2022-08-19T08:27:46;101042.00;;;19.20
58929;BMP180;44713;53.378;10.022;2022-08-19T08:30:23;101053.00;;;19.30
58929;BMP180;44713;53.378;10.022;2022-08-19T08:32:50;101052.00;;;19.30
58929;BMP180;44713;53.378;10.022;2022-08-19T08:35:19;101049.00;;;19.40
58929;BMP180;44713;53.378;10.022;2022-08-19T08:37:47;101047.00;;;19.30
58929;BMP180;44713;53.378;10.022;2022-08-19T08:40:45;101045.00;;;19.50
58929;BMP180;44713;53.378;10.022;2022-08-19T08:43:27;101042.00;;;19.50
58929;BMP180;44713;53.378;10.022;2022-08-19T08:46:12;101042.00;;;19.50
58929;BMP180;44713;53.378;10.022;2022-08-19T08:51:29;101057.00;;;19.40
58929;BMP180;44713;53.378;10.022;2022-08-19T08:53:58;101053.00;;;19.60
58929;BMP180;44713;53.378;10.022;2022-08-19T08:56:24;101057.00;;;19.60
58929;BMP180;44713;53.378;10.022;2022-08-19T08:59:01;101051.00;;;19.70
58929;BMP180;44713;53.378;10.022;2022-08-19T09:01:29;101055.00;;;19.70
58929;BMP180;44713;53.378;10.022;2022-08-19T09:03:54;101056.00;;;19.60
58929;BMP180;44713;53.378;10.022;2022-08-19T09:06:32;101053.00;;;19.70
58929;BMP180;44713;53.378;10.022;2022-08-19T09:09:14;101057.00;;;19.70
58929;BMP180;44713;53.378;10.022;2022-08-19T09:11:50;101049.00;;;19.70
58929;BMP180;44713;53.378;10.022;2022-08-19T09:17:12;101048.00;;;19.60
58929;BMP180;44713;53.378;10.022;2022-08-19T09:19:56;101044.00;;;19.70
58929;BMP180;44713;53.378;10.022;2022-08-19T09:22:23;101044.00;;;19.80
58929;BMP180;44713;53.378;10.022;2022-08-19T09:24:49;101038.00;;;19.80
58929;BMP180;44713;53.378;10.022;2022-08-19T09:27:18;101032.00;;;19.70
58929;BMP180;44713;53.378;10.022;2022-08-19T09:29:43;101035.00;;;19.80
58929;BMP180;44713;53.378;10.022;2022-08-19T09:32:09;101035.00;;;19.90
58929;BMP180;44713;53.378;10.022;2022-08-19T09:34:34;101037.00;;;19.90
58929;BMP180;44713;53.378;10.022;2022-08-19T09:36:59;101037.00;;;20.00
58929;BMP180;44713;53.378;10.022;2022-08-19T09:39:25;101041.00;;;20.00
58929;BMP180;44713;53.378;10.022;2022-08-19T09:41:50;101044.00;;;20.00
58929;BMP180;44713;53.378;10.022;2022-08-19T09:44:17;101055.00;;;19.90
58929;BMP180;44713;53.378;10.022;2022-08-19T09:46:42;101040.00;;;19.90
58929;BMP180;44713;53.378;10.022;2022-08-19T09:49:07;101050.00;;;19.90
58929;BMP180;44713;53.378;10.022;2022-08-19T09:51:33;101044.00;;;19.90
58929;BMP180;44713;53.378;10.022;2022-08-19T09:54:00;101055.00;;;19.90
58929;BMP180;44713;53.378;10.022;2022-08-19T09:56:27;101051.00;;;20.00
58929;BMP180;44713;53.378;10.022;2022-08-19T09:58:52;101051.00;;;20.10
58929;BMP180;44713;53.378;10.022;2022-08-19T10:01:21;101046.00;;;20.20
58929;BMP180;44713;53.378;10.022;2022-08-19T10:03:52;101053.00;;;20.20
58929;BMP180;44713;53.378;10.022;2022-08-19T10:06:18;101052.00;;;20.10
58929;BMP180;44713;53.378;10.022;2022-08-19T10:08:45;101053.00;;;20.20
58929;BMP180;44713;53.378;10.022;2022-08-19T10:11:11;101052.00;;;20.30
58929;BMP180;44713;53.378;10.022;2022-08-19T10:13:37;101056.00;;;20.30
58929;BMP180;44713;53.378;10.022;2022-08-19T10:16:08;101055.00;;;20.20
58929;BMP180;44713;53.378;10.022;2022-08-19T10:18:35;101051.00;;;20.30
58929;BMP180;44713;53.378;10.022;2022-08-19T10:21:09;101043.00;;;20.40
58929;BMP180;44713;53.378;10.022;2022-08-19T10:23:37;101047.00;;;20.50
58929;BMP180;44713;53.378;10.022;2022-08-19T10:26:04;101050.00;;;20.60
58929;BMP180;44713;53.378;10.022;2022-08-19T10:28:34;101051.00;;;20.70
58929;BMP180;44713;53.378;10.022;2022-08-19T10:31:20;101048.00;;;20.70
58929;BMP180;44713;53.378;10.022;2022-08-19T10:33:50;101048.00;;;20.70
58929;BMP180;44713;53.378;10.022;2022-08-19T10:36:20;101053.00;;;20.70
58929;BMP180;44713;53.378;10.022;2022-08-19T10:38:49;101051.00;;;20.80
58929;BMP180;44713;53.378;10.022;2022-08-19T10:41:18;101048.00;;;20.80
58929;BMP180;44713;53.378;10.022;2022-08-19T10:43:44;101045.00;;;20.80
58929;BMP180;44713;53.378;10.022;2022-08-19T10:46:13;101049.00;;;20.70
58929;BMP180;44713;53.378;10.022;2022-08-19T10:48:39;101038.00;;;20.90
58929;BMP180;44713;53.378;10.022;2022-08-19T10:51:05;101044.00;;;21.00
58929;BMP180;44713;53.378;10.022;2022-08-19T10:53:50;101042.00;;;21.00
58929;BMP180;44713;53.378;10.022;2022-08-19T10:56:16;101048.00;;;21.10
58929;BMP180;44713;53.378;10.022;2022-08-19T10:59:00;101039.00;;;21.10
58929;BMP180;44713;53.378;10.022;2022-08-19T11:01:29;101042.00;;;21.20
58929;BMP180;44713;53.378;10.022;2022-08-19T11:03:56;101041.00;;;21.10
58929;BMP180;44713;53.378;10.022;2022-08-19T11:06:23;101044.00;;;21.20
58929;BMP180;44713;53.378;10.022;2022-08-19T11:08:51;101055.00;;;21.10
58929;BMP180;44713;53.378;10.022;2022-08-19T11:11:16;101048.00;;;21.10
58929;BMP180;44713;53.378;10.022;2022-08-19T11:13:42;101049.00;;;21.00
58929;BMP180;44713;53.378;10.022;2022-08-19T11:16:12;101047.00;;;21.10
58929;BMP180;44713;53.378;10.022;2022-08-19T11:18:41;101040.00;;;21.10
58929;BMP180;44713;53.378;10.022;2022-08-19T11:21:13;101050.00;;;21.20
58929;BMP180;44713;53.378;10.022;2022-08-19T11:23:39;101039.00;;;21.10
58929;BMP180;44713;53.378;10.022;2022-08-19T11:26:05;101043.00;;;21.20
58929;BMP180;44713;53.378;10.022;2022-08-19T11:28:31;101039.00;;;21.20
58929;BMP180;44713;53.378;10.022;2022-08-19T11:30:56;101038.00;;;21.20
58929;BMP180;44713;53.378;10.022;2022-08-19T11:33:22;101037.00;;;21.20
58929;BMP180;44713;53.378;10.022;2022-08-19T11:35:47;101030.00;;;21.20
58929;BMP180;44713;53.378;10.022;2022-08-19T11:38:14;101031.00;;;21.10
58929;BMP180;44713;53.378;10.022;2022-08-19T11:40:39;101028.00;;;21.10
58929;BMP180;44713;53.378;10.022;2022-08-19T11:43:07;101027.00;;;21.30
58929;BMP180;44713;53.378;10.022;2022-08-19T11:45:34;101021.00;;;21.40
58929;BMP180;44713;53.378;10.022;2022-08-19T11:47:59;101029.00;;;21.60
58929;BMP180;44713;53.378;10.022;2022-08-19T11:50:25;101025.00;;;21.70
58929;BMP180;44713;53.378;10.022;2022-08-19T11:52:56;101027.00;;;21.80
58929;BMP180;44713;53.378;10.022;2022-08-19T11:55:21;101032.00;;;21.80
58929;BMP180;44713;53.378;10.022;2022-08-19T11:57:47;101029.00;;;21.80
58929;BMP180;44713;53.378;10.022;2022-08-19T12:00:13;101031.00;;;21.90
58929;BMP180;44713;53.378;10.022;2022-08-19T12:02:39;101032.00;;;22.00
58929;BMP180;44713;53.378;10.022;2022-08-19T12:05:05;101032.00;;;22.00
58929;BMP180;44713;53.378;10.022;2022-08-19T12:07:31;101033.00;;;22.10
58929;BMP180;44713;53.378;10.022;2022-08-19T12:09:59;101033.00;;;22.00
58929;BMP180;44713;53.378;10.022;2022-08-19T12:12:24;101027.00;;;22.00
58929;BMP180;44713;53.378;10.022;2022-08-19T12:14:51;101021.00;;;22.00
58929;BMP180;44713;53.378;10.022;2022-08-19T12:17:23;101032.00;;;22.10
58929;BMP180;44713;53.378;10.022;2022-08-19T12:19:48;101029.00;;;22.00
58929;BMP180;44713;53.378;10.022;2022-08-19T12:22:13;101030.00;;;22.10
58929;BMP180;44713;53.378;10.022;2022-08-19T12:24:39;101021.00;;;22.30
58929;BMP180;44713;53.378;10.022;2022-08-19T12:27:04;101019.00;;;22.50
58929;BMP180;44713;53.378;10.022;2022-08-19T12:29:29;101023.00;;;22.70
58929;BMP180;44713;53.378;10.022;2022-08-19T12:31:57;101024.00;;;22.90
58929;BMP180;44713;53.378;10.022;2022-08-19T12:34:27;101021.00;;;23.10
58929;BMP180;44713;53.378;10.022;2022-08-19T12:37:00;101019.00;;;23.20
58929;BMP180;44713;53.378;10.022;2022-08-19T12:39:26;101024.00;;;23.40
58929;BMP180;44713;53.378;10.022;2022-08-19T12:41:52;101018.00;;;23.60
58929;BMP180;44713;53.378;10.022;2022-08-19T12:44:18;101017.00;;;23.70
58929;BMP180;44713;53.378;10.022;2022-08-19T12:46:43;101015.00;;;24.00
58929;BMP180;44713;53.378;10.022;2022-08-19T12:49:09;101015.00;;;24.10
58929;BMP180;44713;53.378;10.022;2022-08-19T12:51:35;101017.00;;;23.80
58929;BMP180;44713;53.378;10.022;2022-08-19T12:54:00;101019.00;;;23.90
58929;BMP180;44713;53.378;10.022;2022-08-19T12:56:26;101010.00;;;24.00
58929;BMP180;44713;53.378;10.022;2022-08-19T12:58:52;101018.00;;;24.10
58929;BMP180;44713;53.378;10.022;2022-08-19T13:01:18;101004.00;;;24.10
58929;BMP180;44713;53.378;10.022;2022-08-19T13:03:46;101003.00;;;24.30
58929;BMP180;44713;53.378;10.022;2022-08-19T13:06:12;101005.00;;;24.10
58929;BMP180;44713;53.378;10.022;2022-08-19T13:08:39;101002.00;;;24.40
58929;BMP180;44713;53.378;10.022;2022-08-19T13:11:16;100995.00;;;24.60
58929;BMP180;44713;53.378;10.022;2022-08-19T13:13:44;100988.00;;;24.90
58929;BMP180;44713;53.378;10.022;2022-08-19T13:16:11;100999.00;;;25.10
58929;BMP180;44713;53.378;10.022;2022-08-19T13:18:37;100999.00;;;24.80
58929;BMP180;44713;53.378;10.022;2022-08-19T13:21:08;101006.00;;;24.80
58929;BMP180;44713;53.378;10.022;2022-08-19T13:23:35;101001.00;;;24.70
58929;BMP180;44713;53.378;10.022;2022-08-19T13:26:03;100999.00;;;24.80
58929;BMP180;44713;53.378;10.022;2022-08-19T13:28:29;100995.00;;;24.70
58929;BMP180;44713;53.378;10.022;2022-08-19T13:31:17;100999.00;;;24.60
58929;BMP180;44713;53.378;10.022;2022-08-19T13:34:01;100990.00;;;24.70
58929;BMP180;44713;53.378;10.022;2022-08-19T13:36:26;100996.00;;;24.60
58929;BMP180;44713;53.378;10.022;2022-08-19T13:38:51;100992.00;;;24.40
58929;BMP180;44713;53.378;10.022;2022-08-19T13:41:17;100995.00;;;24.20
58929;BMP180;44713;53.378;10.022;2022-08-19T13:43:43;100997.00;;;24.10
58929;BMP180;44713;53.378;10.022;2022-08-19T13:46:11;100994.00;;;24.10
58929;BMP180;44713;53.378;10.022;2022-08-19T13:48:39;100995.00;;;24.40
58929;BMP180;44713;53.378;10.022;2022-08-19T13:51:07;101005.00;;;24.20
58929;BMP180;44713;53.378;10.022;2022-08-19T13:53:39;101008.00;;;24.40
58929;BMP180;44713;53.378;10.022;2022-08-19T13:56:05;101009.00;;;24.50